SAS42C ENGM-ENHD
Flight info
| Callsign | SAS42C |
|---|---|
| Flight time | 0h 40m |
| Altitude | 28000 |
| Route | ATLAP DCT IPMOD DCT ULVOS |
| Aircraft | A20N/M-SDE2E3FGHIRWXY/LB1 |
Departure
| Time | 2026-05-05 09:43 |
|---|---|
| Airport | Oslo-Gardermoen International Airport (ENGM) |
Arrival
| Time | 2026-05-05 10:23 |
|---|---|
| Airport | Haugesund Airport, Karmøy (ENHD) |
| Time | Latitude | Longitude | Altitude | Speed | Heading |
|---|---|---|---|---|---|
| 2026-05-05 09:28 | 60.19561 | 11.09425 | 685 ft | 0 kts | 196° |
| 2026-05-05 09:32 | 60.19565 | 11.09427 | 679 ft | 3 kts | 196° |
| 2026-05-05 09:32 | 60.19591 | 11.09443 | 683 ft | 4 kts | 196° |
| 2026-05-05 09:33 | 60.19617 | 11.09457 | 680 ft | 4 kts | 196° |
| 2026-05-05 09:33 | 60.19643 | 11.09472 | 677 ft | 3 kts | 196° |
| 2026-05-05 09:33 | 60.19647 | 11.09475 | 678 ft | 0 kts | 196° |
| 2026-05-05 09:36 | 60.19646 | 11.09474 | 678 ft | 1 kts | 198° |
| 2026-05-05 09:36 | 60.19645 | 11.09464 | 678 ft | 0 kts | 247° |
| 2026-05-05 09:37 | 60.19650 | 11.09446 | 677 ft | 5 kts | 294° |
| 2026-05-05 09:37 | 60.19677 | 11.09329 | 682 ft | 13 kts | 295° |
| 2026-05-05 09:37 | 60.19719 | 11.09128 | 679 ft | 18 kts | 288° |
| 2026-05-05 09:37 | 60.19760 | 11.08849 | 678 ft | 23 kts | 285° |
| 2026-05-05 09:38 | 60.19821 | 11.08690 | 679 ft | 5 kts | 2° |
| 2026-05-05 09:38 | 60.19860 | 11.08723 | 677 ft | 9 kts | 20° |
| 2026-05-05 09:38 | 60.19942 | 11.08767 | 679 ft | 15 kts | 14° |
| 2026-05-05 09:38 | 60.20065 | 11.08830 | 680 ft | 21 kts | 14° |
| 2026-05-05 09:39 | 60.20220 | 11.08924 | 681 ft | 26 kts | 17° |
| 2026-05-05 09:39 | 60.20407 | 11.09032 | 682 ft | 30 kts | 15° |
| 2026-05-05 09:39 | 60.20623 | 11.09159 | 682 ft | 34 kts | 16° |
| 2026-05-05 09:39 | 60.20857 | 11.09300 | 682 ft | 36 kts | 16° |
| 2026-05-05 09:40 | 60.21111 | 11.09443 | 684 ft | 39 kts | 15° |
| 2026-05-05 09:40 | 60.21377 | 11.09594 | 687 ft | 39 kts | 15° |
| 2026-05-05 09:40 | 60.21558 | 11.09542 | 684 ft | 1 kts | 295° |
| 2026-05-05 09:40 | 60.21558 | 11.09536 | 684 ft | 2 kts | 279° |
| 2026-05-05 09:41 | 60.21562 | 11.09450 | 683 ft | 9 kts | 275° |
| 2026-05-05 09:41 | 60.21578 | 11.09291 | 679 ft | 14 kts | 280° |
| 2026-05-05 09:41 | 60.21529 | 11.09129 | 684 ft | 16 kts | 205° |
| 2026-05-05 09:41 | 60.21480 | 11.09098 | 682 ft | 0 kts | 196° |
| 2026-05-05 09:42 | 60.21437 | 11.09074 | 678 ft | 36 kts | 196° |
| 2026-05-05 09:42 | 60.20895 | 11.08754 | 680 ft | 122 kts | 196° |
| 2026-05-05 09:42 | 60.19892 | 11.08196 | 894 ft | 160 kts | 195° |
| 2026-05-05 09:43 | 60.18831 | 11.07722 | 1883 ft | 157 kts | 193° |
| 2026-05-05 09:43 | 60.17711 | 11.07319 | 2720 ft | 169 kts | 192° |
| 2026-05-05 09:43 | 60.16541 | 11.06697 | 3436 ft | 182 kts | 214° |
| 2026-05-05 09:43 | 60.15707 | 11.04718 | 4150 ft | 196 kts | 248° |
| 2026-05-05 09:44 | 60.15221 | 11.01993 | 4878 ft | 221 kts | 254° |
| 2026-05-05 09:44 | 60.14726 | 10.98895 | 5913 ft | 244 kts | 252° |
| 2026-05-05 09:44 | 60.14222 | 10.95540 | 7172 ft | 254 kts | 255° |
| 2026-05-05 09:44 | 60.13722 | 10.92099 | 8620 ft | 260 kts | 256° |
| 2026-05-05 09:45 | 60.13213 | 10.88561 | 10052 ft | 266 kts | 256° |
| 2026-05-05 09:45 | 60.12697 | 10.84920 | 11060 ft | 286 kts | 256° |
| 2026-05-05 09:45 | 60.12138 | 10.80938 | 11895 ft | 308 kts | 256° |
| 2026-05-05 09:45 | 60.11543 | 10.76719 | 12979 ft | 318 kts | 256° |
| 2026-05-05 09:46 | 60.10935 | 10.72436 | 14262 ft | 320 kts | 256° |
| 2026-05-05 09:46 | 60.10326 | 10.68173 | 15699 ft | 314 kts | 257° |
| 2026-05-05 09:46 | 60.09729 | 10.63998 | 17105 ft | 312 kts | 257° |
| 2026-05-05 09:46 | 60.09134 | 10.59831 | 18395 ft | 311 kts | 256° |
| 2026-05-05 09:47 | 60.08542 | 10.55695 | 19592 ft | 307 kts | 256° |
| 2026-05-05 09:47 | 60.07957 | 10.51614 | 20805 ft | 303 kts | 256° |
| 2026-05-05 09:47 | 60.07383 | 10.47610 | 21915 ft | 303 kts | 256° |
| 2026-05-05 09:47 | 60.06799 | 10.43550 | 23071 ft | 302 kts | 256° |
| 2026-05-05 09:48 | 60.06216 | 10.39514 | 24058 ft | 302 kts | 256° |
| 2026-05-05 09:48 | 60.05627 | 10.35433 | 24717 ft | 309 kts | 256° |
| 2026-05-05 09:48 | 60.05019 | 10.31231 | 25154 ft | 320 kts | 256° |
| 2026-05-05 09:48 | 60.04395 | 10.26929 | 25841 ft | 324 kts | 255° |
| 2026-05-05 09:49 | 60.03758 | 10.22560 | 26535 ft | 329 kts | 255° |
| 2026-05-05 09:49 | 60.03117 | 10.18177 | 27165 ft | 334 kts | 255° |
| 2026-05-05 09:49 | 60.02458 | 10.13682 | 27693 ft | 339 kts | 255° |
| 2026-05-05 09:49 | 60.01792 | 10.09153 | 27865 ft | 341 kts | 255° |
| 2026-05-05 09:50 | 60.01120 | 10.04596 | 27880 ft | 341 kts | 255° |
| 2026-05-05 09:50 | 60.00449 | 10.00064 | 27872 ft | 340 kts | 255° |
| 2026-05-05 09:50 | 59.99777 | 9.95534 | 27894 ft | 340 kts | 255° |
| 2026-05-05 09:50 | 59.99107 | 9.91042 | 27876 ft | 335 kts | 255° |
| 2026-05-05 09:51 | 59.98438 | 9.86562 | 27873 ft | 336 kts | 256° |
| 2026-05-05 09:51 | 59.97768 | 9.82071 | 27879 ft | 337 kts | 255° |
| 2026-05-05 09:51 | 59.97098 | 9.77590 | 27877 ft | 336 kts | 255° |
| 2026-05-05 09:51 | 59.96426 | 9.73112 | 27878 ft | 337 kts | 255° |
| 2026-05-05 09:52 | 59.95751 | 9.68625 | 27877 ft | 337 kts | 255° |
| 2026-05-05 09:52 | 59.95087 | 9.64219 | 27877 ft | 337 kts | 255° |
| 2026-05-05 09:52 | 59.94410 | 9.59747 | 27878 ft | 337 kts | 255° |
| 2026-05-05 09:52 | 59.93732 | 9.55269 | 27882 ft | 337 kts | 255° |
| 2026-05-05 09:53 | 59.93050 | 9.50783 | 27888 ft | 337 kts | 255° |
| 2026-05-05 09:53 | 59.92368 | 9.46311 | 27889 ft | 337 kts | 255° |
| 2026-05-05 09:53 | 59.91685 | 9.41840 | 27886 ft | 338 kts | 255° |
| 2026-05-05 09:53 | 59.90998 | 9.37362 | 27885 ft | 337 kts | 255° |
| 2026-05-05 09:54 | 59.90311 | 9.32893 | 27883 ft | 337 kts | 255° |
| 2026-05-05 09:54 | 59.89624 | 9.28438 | 27886 ft | 337 kts | 255° |
| 2026-05-05 09:54 | 59.89168 | 9.25483 | 27898 ft | 337 kts | 255° |
| 2026-05-05 09:54 | 59.88476 | 9.21013 | 27900 ft | 339 kts | 255° |
| 2026-05-05 09:55 | 59.87781 | 9.16528 | 27901 ft | 338 kts | 255° |
| 2026-05-05 09:55 | 59.87085 | 9.12056 | 27901 ft | 339 kts | 255° |
| 2026-05-05 09:55 | 59.86386 | 9.07568 | 27899 ft | 338 kts | 255° |
| 2026-05-05 09:55 | 59.85685 | 9.03082 | 27900 ft | 343 kts | 255° |
| 2026-05-05 09:56 | 59.84972 | 8.98523 | 27912 ft | 345 kts | 255° |
| 2026-05-05 09:56 | 59.84258 | 8.93985 | 27926 ft | 344 kts | 255° |
| 2026-05-05 09:56 | 59.83547 | 8.89474 | 27928 ft | 343 kts | 255° |
| 2026-05-05 09:56 | 59.82829 | 8.84934 | 27928 ft | 344 kts | 255° |
| 2026-05-05 09:57 | 59.82109 | 8.80390 | 27927 ft | 345 kts | 255° |
| 2026-05-05 09:57 | 59.81390 | 8.75858 | 27928 ft | 344 kts | 255° |
| 2026-05-05 09:57 | 59.80665 | 8.71306 | 27929 ft | 344 kts | 255° |
| 2026-05-05 09:57 | 59.79941 | 8.66772 | 27944 ft | 345 kts | 255° |
| 2026-05-05 09:58 | 59.79225 | 8.62291 | 27949 ft | 345 kts | 255° |
| 2026-05-05 09:58 | 59.78497 | 8.57753 | 27948 ft | 344 kts | 255° |
| 2026-05-05 09:58 | 59.77765 | 8.53200 | 27943 ft | 347 kts | 255° |
| 2026-05-05 09:58 | 59.77026 | 8.48619 | 27945 ft | 349 kts | 255° |
| 2026-05-05 09:59 | 59.76286 | 8.44041 | 27942 ft | 348 kts | 255° |
| 2026-05-05 09:59 | 59.75544 | 8.39470 | 27955 ft | 347 kts | 255° |
| 2026-05-05 09:59 | 59.74802 | 8.34898 | 27958 ft | 348 kts | 255° |
| 2026-05-05 09:59 | 59.74061 | 8.30320 | 27958 ft | 347 kts | 255° |
| 2026-05-05 10:00 | 59.73490 | 8.25741 | 27954 ft | 347 kts | 259° |
| 2026-05-05 10:00 | 59.72985 | 8.21018 | 27956 ft | 346 kts | 259° |
| 2026-05-05 10:00 | 59.72498 | 8.16392 | 27959 ft | 347 kts | 259° |
| 2026-05-05 10:00 | 59.72002 | 8.11713 | 27978 ft | 347 kts | 259° |
| 2026-05-05 10:01 | 59.71500 | 8.07047 | 27975 ft | 347 kts | 259° |
| 2026-05-05 10:01 | 59.70992 | 8.02371 | 27977 ft | 347 kts | 259° |
| 2026-05-05 10:01 | 59.70479 | 7.97686 | 27972 ft | 347 kts | 259° |
| 2026-05-05 10:01 | 59.69967 | 7.93025 | 27973 ft | 347 kts | 259° |
| 2026-05-05 10:02 | 59.69452 | 7.88363 | 27972 ft | 347 kts | 259° |
| 2026-05-05 10:02 | 59.68932 | 7.83672 | 27886 ft | 349 kts | 259° |
| 2026-05-05 10:02 | 59.68410 | 7.78989 | 27616 ft | 348 kts | 259° |
| 2026-05-05 10:02 | 59.67890 | 7.74331 | 27356 ft | 344 kts | 259° |
| 2026-05-05 10:03 | 59.67380 | 7.69780 | 27102 ft | 343 kts | 259° |
| 2026-05-05 10:03 | 59.66864 | 7.65181 | 26839 ft | 340 kts | 259° |
| 2026-05-05 10:03 | 59.66350 | 7.60623 | 26497 ft | 338 kts | 259° |
| 2026-05-05 10:03 | 59.65833 | 7.56031 | 26254 ft | 345 kts | 259° |
| 2026-05-05 10:04 | 59.65310 | 7.51428 | 25996 ft | 340 kts | 259° |
| 2026-05-05 10:04 | 59.64791 | 7.46880 | 25695 ft | 338 kts | 259° |
| 2026-05-05 10:04 | 59.64272 | 7.42342 | 25207 ft | 336 kts | 259° |
| 2026-05-05 10:04 | 59.63759 | 7.37875 | 24717 ft | 331 kts | 259° |
| 2026-05-05 10:05 | 59.63258 | 7.33521 | 24265 ft | 326 kts | 259° |
| 2026-05-05 10:05 | 59.62755 | 7.29166 | 23816 ft | 324 kts | 259° |
| 2026-05-05 10:05 | 59.62256 | 7.24856 | 23341 ft | 321 kts | 259° |
| 2026-05-05 10:05 | 59.61760 | 7.20580 | 22818 ft | 318 kts | 259° |
| 2026-05-05 10:06 | 59.61266 | 7.16338 | 22301 ft | 315 kts | 259° |
| 2026-05-05 10:06 | 59.60772 | 7.12134 | 21792 ft | 313 kts | 260° |
| 2026-05-05 10:06 | 59.60284 | 7.07971 | 21299 ft | 311 kts | 260° |
| 2026-05-05 10:06 | 59.59797 | 7.03821 | 20790 ft | 309 kts | 260° |
| 2026-05-05 10:07 | 59.59311 | 6.99699 | 20318 ft | 308 kts | 260° |
| 2026-05-05 10:07 | 59.58826 | 6.95589 | 19842 ft | 306 kts | 260° |
| 2026-05-05 10:07 | 59.58342 | 6.91501 | 19405 ft | 305 kts | 260° |
| 2026-05-05 10:07 | 59.57864 | 6.87479 | 18967 ft | 304 kts | 260° |
| 2026-05-05 10:08 | 59.57382 | 6.83436 | 18531 ft | 302 kts | 260° |
| 2026-05-05 10:08 | 59.56901 | 6.79418 | 18061 ft | 300 kts | 260° |
| 2026-05-05 10:08 | 59.56425 | 6.75456 | 17496 ft | 293 kts | 260° |
| 2026-05-05 10:08 | 59.55959 | 6.71592 | 16950 ft | 286 kts | 260° |
| 2026-05-05 10:09 | 59.55467 | 6.67817 | 16424 ft | 283 kts | 257° |
| 2026-05-05 10:09 | 59.54786 | 6.64181 | 15882 ft | 282 kts | 251° |
| 2026-05-05 10:09 | 59.53911 | 6.60752 | 15364 ft | 279 kts | 247° |
| 2026-05-05 10:09 | 59.52990 | 6.57415 | 14863 ft | 275 kts | 247° |
| 2026-05-05 10:10 | 59.52086 | 6.54099 | 14346 ft | 273 kts | 247° |
| 2026-05-05 10:10 | 59.51192 | 6.50811 | 13855 ft | 272 kts | 247° |
| 2026-05-05 10:10 | 59.50300 | 6.47530 | 13274 ft | 271 kts | 246° |
| 2026-05-05 10:10 | 59.49405 | 6.44238 | 12710 ft | 275 kts | 246° |
| 2026-05-05 10:11 | 59.48514 | 6.40966 | 12175 ft | 275 kts | 246° |
| 2026-05-05 10:11 | 59.47607 | 6.37649 | 11622 ft | 274 kts | 245° |
| 2026-05-05 10:11 | 59.46704 | 6.34358 | 11108 ft | 273 kts | 245° |
| 2026-05-05 10:11 | 59.45802 | 6.31077 | 10592 ft | 272 kts | 245° |
| 2026-05-05 10:12 | 59.44919 | 6.27865 | 10057 ft | 272 kts | 245° |
| 2026-05-05 10:12 | 59.44016 | 6.24600 | 9541 ft | 273 kts | 245° |
| 2026-05-05 10:12 | 59.43110 | 6.21313 | 8977 ft | 274 kts | 245° |
| 2026-05-05 10:12 | 59.42202 | 6.18020 | 8435 ft | 274 kts | 245° |
| 2026-05-05 10:13 | 59.41294 | 6.14737 | 7890 ft | 274 kts | 245° |
| 2026-05-05 10:13 | 59.40385 | 6.11454 | 7363 ft | 273 kts | 244° |
| 2026-05-05 10:13 | 59.39480 | 6.08198 | 6926 ft | 270 kts | 244° |
| 2026-05-05 10:13 | 59.38585 | 6.04984 | 6491 ft | 267 kts | 244° |
| 2026-05-05 10:14 | 59.37700 | 6.01806 | 6030 ft | 264 kts | 244° |
| 2026-05-05 10:14 | 59.36836 | 5.98707 | 5572 ft | 261 kts | 244° |
| 2026-05-05 10:14 | 59.35971 | 5.95605 | 5165 ft | 257 kts | 244° |
| 2026-05-05 10:14 | 59.35128 | 5.92602 | 4992 ft | 244 kts | 244° |
| 2026-05-05 10:15 | 59.34330 | 5.89761 | 4851 ft | 232 kts | 244° |
| 2026-05-05 10:15 | 59.33567 | 5.87044 | 4728 ft | 222 kts | 244° |
| 2026-05-05 10:15 | 59.32826 | 5.84404 | 4573 ft | 223 kts | 244° |
| 2026-05-05 10:15 | 59.32084 | 5.81755 | 4452 ft | 222 kts | 244° |
| 2026-05-05 10:16 | 59.31341 | 5.79108 | 4315 ft | 221 kts | 244° |
| 2026-05-05 10:16 | 59.30601 | 5.76476 | 4182 ft | 221 kts | 244° |
| 2026-05-05 10:16 | 59.29867 | 5.73870 | 4053 ft | 220 kts | 243° |
| 2026-05-05 10:16 | 59.29118 | 5.71218 | 3989 ft | 220 kts | 243° |
| 2026-05-05 10:17 | 59.28376 | 5.68596 | 3985 ft | 221 kts | 243° |
| 2026-05-05 10:17 | 59.27639 | 5.65994 | 3989 ft | 220 kts | 243° |
| 2026-05-05 10:17 | 59.26895 | 5.63365 | 3990 ft | 220 kts | 243° |
| 2026-05-05 10:17 | 59.26097 | 5.60802 | 3989 ft | 221 kts | 236° |
| 2026-05-05 10:18 | 59.25053 | 5.58566 | 3835 ft | 223 kts | 227° |
| 2026-05-05 10:18 | 59.23941 | 5.56465 | 3555 ft | 222 kts | 227° |
| 2026-05-05 10:18 | 59.22841 | 5.54368 | 3257 ft | 220 kts | 227° |
| 2026-05-05 10:18 | 59.21819 | 5.52167 | 3053 ft | 218 kts | 241° |
| 2026-05-05 10:19 | 59.21388 | 5.49431 | 2817 ft | 214 kts | 270° |
| 2026-05-05 10:19 | 59.21726 | 5.46633 | 2583 ft | 214 kts | 299° |
| 2026-05-05 10:19 | 59.22691 | 5.44412 | 2497 ft | 214 kts | 314° |
| 2026-05-05 10:19 | 59.23686 | 5.42488 | 2493 ft | 194 kts | 314° |
| 2026-05-05 10:20 | 59.24643 | 5.40616 | 2533 ft | 193 kts | 313° |
| 2026-05-05 10:20 | 59.25579 | 5.38763 | 2464 ft | 193 kts | 313° |
| 2026-05-05 10:20 | 59.26508 | 5.36912 | 2216 ft | 188 kts | 313° |
| 2026-05-05 10:20 | 59.27428 | 5.35075 | 2077 ft | 189 kts | 313° |
| 2026-05-05 10:21 | 59.28301 | 5.33334 | 1997 ft | 173 kts | 313° |
| 2026-05-05 10:21 | 59.29125 | 5.31685 | 1754 ft | 166 kts | 313° |
| 2026-05-05 10:21 | 59.29932 | 5.30068 | 1408 ft | 167 kts | 313° |
| 2026-05-05 10:21 | 59.30760 | 5.28402 | 1298 ft | 171 kts | 313° |
| 2026-05-05 10:22 | 59.31571 | 5.26786 | 1036 ft | 156 kts | 313° |
| 2026-05-05 10:22 | 59.32315 | 5.25314 | 755 ft | 156 kts | 312° |
| 2026-05-05 10:22 | 59.33048 | 5.23822 | 516 ft | 156 kts | 312° |
| 2026-05-05 10:22 | 59.33816 | 5.22283 | 178 ft | 158 kts | 312° |
| 2026-05-05 10:23 | 59.34477 | 5.20891 | 82 ft | 88 kts | 314° |
| 2026-05-05 10:23 | 59.34599 | 5.20647 | 81 ft | 7 kts | 317° |
| 2026-05-05 10:23 | 59.34668 | 5.20522 | 81 ft | 18 kts | 317° |
| 2026-05-05 10:23 | 59.34762 | 5.20341 | 78 ft | 17 kts | 306° |
| 2026-05-05 10:24 | 59.34830 | 5.20228 | 77 ft | 6 kts | 7° |
| 2026-05-05 10:24 | 59.34837 | 5.20244 | 77 ft | 1 kts | 79° |
| 2026-05-05 10:24 | 59.34825 | 5.20270 | 76 ft | 6 kts | 129° |
| 2026-05-05 10:24 | 59.34776 | 5.20365 | 67 ft | 13 kts | 137° |
| 2026-05-05 10:25 | 59.34697 | 5.20514 | 82 ft | 18 kts | 135° |
| 2026-05-05 10:25 | 59.34592 | 5.20715 | 80 ft | 24 kts | 135° |
| 2026-05-05 10:25 | 59.34465 | 5.20968 | 82 ft | 28 kts | 135° |
| 2026-05-05 10:25 | 59.34355 | 5.21182 | 85 ft | 19 kts | 131° |
| 2026-05-05 10:26 | 59.34375 | 5.21356 | 90 ft | 14 kts | 47° |
| 2026-05-05 10:26 | 59.34449 | 5.21454 | 88 ft | 11 kts | 42° |
| 2026-05-05 10:26 | 59.34469 | 5.21489 | 91 ft | 4 kts | 41° |
| 2026-05-05 10:26 | 59.34476 | 5.21502 | 87 ft | 0 kts | 43° |